sensor_id;sensor_type;location;lat;lon;timestamp;noise_LAeq;noise_LA_min;noise_LA_max;noise_LA01;noise_LA95
51665;Laerm;37751;52.408;12.536;2024-03-06T00:01:48;43.83;27.89;61.10;;
51665;Laerm;37751;52.408;12.536;2024-03-06T00:04:57;43.25;28.13;62.19;;
51665;Laerm;37751;52.408;12.536;2024-03-06T00:07:29;45.55;28.43;63.17;;
51665;Laerm;37751;52.408;12.536;2024-03-06T00:10:13;42.11;27.43;61.83;;
51665;Laerm;37751;52.408;12.536;2024-03-06T00:12:56;48.87;28.79;65.91;;
51665;Laerm;37751;52.408;12.536;2024-03-06T00:15:59;46.61;28.53;61.88;;
51665;Laerm;37751;52.408;12.536;2024-03-06T00:18:51;45.29;29.84;60.01;;
51665;Laerm;37751;52.408;12.536;2024-03-06T00:21:43;40.65;30.48;59.49;;
51665;Laerm;37751;52.408;12.536;2024-03-06T00:24:44;45.62;27.63;63.63;;
51665;Laerm;37751;52.408;12.536;2024-03-06T00:27:39;32.65;27.04;44.74;;
51665;Laerm;37751;52.408;12.536;2024-03-06T00:30:20;40.33;27.16;57.04;;
51665;Laerm;37751;52.408;12.536;2024-03-06T00:33:12;46.43;30.19;65.43;;
51665;Laerm;37751;52.408;12.536;2024-03-06T00:36:24;29.44;27.29;36.95;;
51665;Laerm;37751;52.408;12.536;2024-03-06T00:38:59;41.56;27.99;58.82;;
51665;Laerm;37751;52.408;12.536;2024-03-06T00:41:36;40.53;27.82;59.28;;
51665;Laerm;37751;52.408;12.536;2024-03-06T00:44:30;43.23;29.06;63.89;;
51665;Laerm;37751;52.408;12.536;2024-03-06T00:47:24;38.13;28.88;56.49;;
51665;Laerm;37751;52.408;12.536;2024-03-06T00:49:58;41.42;28.38;59.51;;
51665;Laerm;37751;52.408;12.536;2024-03-06T00:53:10;48.69;32.51;66.49;;
51665;Laerm;37751;52.408;12.536;2024-03-06T00:55:52;46.77;33.50;62.30;;
51665;Laerm;37751;52.408;12.536;2024-03-06T00:58:33;48.04;29.95;62.75;;
51665;Laerm;37751;52.408;12.536;2024-03-06T01:01:48;42.98;29.76;61.50;;
51665;Laerm;37751;52.408;12.536;2024-03-06T01:04:35;30.53;28.83;41.61;;
51665;Laerm;37751;52.408;12.536;2024-03-06T01:07:38;47.37;29.40;64.42;;
51665;Laerm;37751;52.408;12.536;2024-03-06T01:10:25;54.28;34.29;67.50;;
51665;Laerm;37751;52.408;12.536;2024-03-06T01:13:27;48.90;28.23;66.07;;
51665;Laerm;37751;52.408;12.536;2024-03-06T01:15:58;29.71;27.89;34.44;;
51665;Laerm;37751;52.408;12.536;2024-03-06T01:18:48;40.00;28.56;59.63;;
51665;Laerm;37751;52.408;12.536;2024-03-06T01:21:58;40.28;29.64;52.20;;
51665;Laerm;37751;52.408;12.536;2024-03-06T01:24:50;39.95;29.51;57.69;;
51665;Laerm;37751;52.408;12.536;2024-03-06T01:27:31;50.86;29.93;65.45;;
51665;Laerm;37751;52.408;12.536;2024-03-06T01:30:03;40.84;29.70;58.67;;
51665;Laerm;37751;52.408;12.536;2024-03-06T01:32:35;47.78;31.01;62.86;;
51665;Laerm;37751;52.408;12.536;2024-03-06T01:35:22;44.72;29.59;62.37;;
51665;Laerm;37751;52.408;12.536;2024-03-06T01:37:59;42.13;28.89;56.92;;
51665;Laerm;37751;52.408;12.536;2024-03-06T01:40:50;41.70;28.66;60.26;;
51665;Laerm;37751;52.408;12.536;2024-03-06T01:43:38;46.76;28.37;62.31;;
51665;Laerm;37751;52.408;12.536;2024-03-06T01:46:50;45.40;28.08;65.96;;
51665;Laerm;37751;52.408;12.536;2024-03-06T01:49:56;49.20;27.70;69.38;;
51665;Laerm;37751;52.408;12.536;2024-03-06T01:52:51;47.68;27.50;66.08;;
51665;Laerm;37751;52.408;12.536;2024-03-06T01:55:51;36.75;27.56;45.94;;
51665;Laerm;37751;52.408;12.536;2024-03-06T01:58:30;47.63;29.20;64.86;;
51665;Laerm;37751;52.408;12.536;2024-03-06T02:01:06;46.82;27.87;65.48;;
51665;Laerm;37751;52.408;12.536;2024-03-06T02:03:38;49.30;28.05;65.95;;
51665;Laerm;37751;52.408;12.536;2024-03-06T02:06:10;46.58;28.66;66.91;;
51665;Laerm;37751;52.408;12.536;2024-03-06T02:08:45;41.55;28.97;59.75;;
51665;Laerm;37751;52.408;12.536;2024-03-06T02:11:37;45.49;28.06;64.02;;
51665;Laerm;37751;52.408;12.536;2024-03-06T02:14:29;44.79;28.96;61.73;;
51665;Laerm;37751;52.408;12.536;2024-03-06T02:17:08;50.02;30.72;64.35;;
51665;Laerm;37751;52.408;12.536;2024-03-06T02:19:53;49.45;31.22;63.26;;
51665;Laerm;37751;52.408;12.536;2024-03-06T02:23:09;45.77;27.59;62.16;;
51665;Laerm;37751;52.408;12.536;2024-03-06T02:25:47;46.13;28.10;66.12;;
51665;Laerm;37751;52.408;12.536;2024-03-06T02:28:47;44.26;27.70;62.40;;
51665;Laerm;37751;52.408;12.536;2024-03-06T02:31:20;45.52;28.08;61.99;;
51665;Laerm;37751;52.408;12.536;2024-03-06T02:34:18;48.62;29.21;65.74;;
51665;Laerm;37751;52.408;12.536;2024-03-06T02:36:55;48.17;29.30;65.31;;
51665;Laerm;37751;52.408;12.536;2024-03-06T02:40:06;50.54;29.38;68.96;;
51665;Laerm;37751;52.408;12.536;2024-03-06T02:43:09;47.82;33.41;60.04;;
51665;Laerm;37751;52.408;12.536;2024-03-06T02:46:13;47.67;31.21;59.61;;
51665;Laerm;37751;52.408;12.536;2024-03-06T02:48:48;49.71;32.08;62.00;;
51665;Laerm;37751;52.408;12.536;2024-03-06T02:51:25;54.38;38.48;67.20;;
51665;Laerm;37751;52.408;12.536;2024-03-06T02:54:20;53.06;35.09;65.33;;
51665;Laerm;37751;52.408;12.536;2024-03-06T02:57:15;46.95;29.50;59.57;;
51665;Laerm;37751;52.408;12.536;2024-03-06T03:00:20;47.92;32.61;62.24;;
51665;Laerm;37751;52.408;12.536;2024-03-06T03:02:52;49.75;32.44;64.37;;
51665;Laerm;37751;52.408;12.536;2024-03-06T03:05:44;51.32;33.64;64.17;;
51665;Laerm;37751;52.408;12.536;2024-03-06T03:08:49;52.57;35.65;65.19;;
51665;Laerm;37751;52.408;12.536;2024-03-06T03:11:50;51.64;38.30;67.30;;
51665;Laerm;37751;52.408;12.536;2024-03-06T03:14:31;54.68;36.09;72.15;;
51665;Laerm;37751;52.408;12.536;2024-03-06T03:17:26;52.46;31.88;69.07;;
51665;Laerm;37751;52.408;12.536;2024-03-06T03:20:39;52.40;34.05;67.65;;
51665;Laerm;37751;52.408;12.536;2024-03-06T03:23:18;49.37;36.14;61.98;;
51665;Laerm;37751;52.408;12.536;2024-03-06T03:25:53;47.26;31.80;61.85;;
51665;Laerm;37751;52.408;12.536;2024-03-06T03:29:05;55.49;38.66;67.54;;
51665;Laerm;37751;52.408;12.536;2024-03-06T03:32:04;55.64;43.83;72.39;;
51665;Laerm;37751;52.408;12.536;2024-03-06T03:35:08;56.47;40.96;69.71;;
51665;Laerm;37751;52.408;12.536;2024-03-06T03:37:39;54.00;40.25;62.95;;
51665;Laerm;37751;52.408;12.536;2024-03-06T03:40:41;56.12;39.66;67.73;;
51665;Laerm;37751;52.408;12.536;2024-03-06T03:43:53;55.61;44.25;65.96;;
51665;Laerm;37751;52.408;12.536;2024-03-06T03:46:25;56.28;41.49;69.62;;
51665;Laerm;37751;52.408;12.536;2024-03-06T03:49:06;57.77;38.85;70.36;;
51665;Laerm;37751;52.408;12.536;2024-03-06T03:52:08;57.29;44.18;71.87;;
51665;Laerm;37751;52.408;12.536;2024-03-06T03:55:20;57.70;43.29;69.60;;
51665;Laerm;37751;52.408;12.536;2024-03-06T03:58:14;54.88;38.74;67.71;;
51665;Laerm;37751;52.408;12.536;2024-03-06T04:01:26;56.12;40.90;68.16;;
51665;Laerm;37751;52.408;12.536;2024-03-06T04:04:20;57.54;39.72;69.45;;
51665;Laerm;37751;52.408;12.536;2024-03-06T04:07:25;55.60;40.97;67.31;;
51665;Laerm;37751;52.408;12.536;2024-03-06T04:10:36;55.92;41.54;66.53;;
51665;Laerm;37751;52.408;12.536;2024-03-06T04:13:36;56.06;42.33;69.90;;
51665;Laerm;37751;52.408;12.536;2024-03-06T04:16:39;58.97;40.61;71.53;;
51665;Laerm;37751;52.408;12.536;2024-03-06T04:19:13;56.58;41.74;68.24;;
51665;Laerm;37751;52.408;12.536;2024-03-06T04:22:19;57.40;44.57;68.47;;
51665;Laerm;37751;52.408;12.536;2024-03-06T04:25:24;57.49;41.81;68.97;;
51665;Laerm;37751;52.408;12.536;2024-03-06T04:28:13;60.79;46.70;75.98;;
51665;Laerm;37751;52.408;12.536;2024-03-06T04:30:48;58.52;46.60;67.35;;
51665;Laerm;37751;52.408;12.536;2024-03-06T04:33:22;57.21;44.16;68.79;;
51665;Laerm;37751;52.408;12.536;2024-03-06T04:35:57;61.24;46.19;75.31;;
51665;Laerm;37751;52.408;12.536;2024-03-06T04:38:51;60.09;44.51;72.11;;
51665;Laerm;37751;52.408;12.536;2024-03-06T04:41:23;62.09;48.93;77.37;;
51665;Laerm;37751;52.408;12.536;2024-03-06T04:44:01;57.75;43.26;67.18;;
51665;Laerm;37751;52.408;12.536;2024-03-06T04:46:33;59.56;44.40;71.46;;
51665;Laerm;37751;52.408;12.536;2024-03-06T04:49:04;57.54;45.69;65.59;;
51665;Laerm;37751;52.408;12.536;2024-03-06T04:51:36;60.67;46.19;73.15;;
51665;Laerm;37751;52.408;12.536;2024-03-06T04:54:31;58.97;43.55;73.78;;
51665;Laerm;37751;52.408;12.536;2024-03-06T04:57:28;58.78;44.73;68.53;;
51665;Laerm;37751;52.408;12.536;2024-03-06T05:00:19;57.32;43.79;71.01;;
51665;Laerm;37751;52.408;12.536;2024-03-06T05:03:21;58.53;45.12;72.20;;
51665;Laerm;37751;52.408;12.536;2024-03-06T05:06:15;58.52;43.85;70.23;;
51665;Laerm;37751;52.408;12.536;2024-03-06T05:09:31;60.94;45.43;76.08;;
51665;Laerm;37751;52.408;12.536;2024-03-06T05:12:36;58.50;45.56;68.84;;
51665;Laerm;37751;52.408;12.536;2024-03-06T05:15:23;59.83;47.53;72.62;;
51665;Laerm;37751;52.408;12.536;2024-03-06T05:18:12;59.26;45.36;68.59;;
51665;Laerm;37751;52.408;12.536;2024-03-06T05:20:58;59.10;45.75;66.46;;
51665;Laerm;37751;52.408;12.536;2024-03-06T05:23:46;59.16;44.48;68.63;;
51665;Laerm;37751;52.408;12.536;2024-03-06T05:26:37;59.19;45.62;69.63;;
51665;Laerm;37751;52.408;12.536;2024-03-06T05:29:22;60.45;47.13;76.47;;
51665;Laerm;37751;52.408;12.536;2024-03-06T05:32:07;60.12;49.81;67.73;;
51665;Laerm;37751;52.408;12.536;2024-03-06T05:35:32;60.42;49.13;68.26;;
51665;Laerm;37751;52.408;12.536;2024-03-06T05:38:59;58.11;43.76;68.05;;
51665;Laerm;37751;52.408;12.536;2024-03-06T05:42:17;60.31;43.45;67.43;;
51665;Laerm;37751;52.408;12.536;2024-03-06T05:45:51;60.30;47.02;69.02;;
51665;Laerm;37751;52.408;12.536;2024-03-06T05:48:57;60.67;49.04;73.24;;
51665;Laerm;37751;52.408;12.536;2024-03-06T05:52:24;59.69;48.55;68.86;;
51665;Laerm;37751;52.408;12.536;2024-03-06T05:55:39;61.92;51.06;72.40;;
51665;Laerm;37751;52.408;12.536;2024-03-06T05:58:29;61.55;46.86;73.53;;
51665;Laerm;37751;52.408;12.536;2024-03-06T06:01:20;61.72;51.52;75.43;;
51665;Laerm;37751;52.408;12.536;2024-03-06T06:04:14;61.32;48.70;83.28;;
51665;Laerm;37751;52.408;12.536;2024-03-06T06:06:47;60.53;47.65;69.97;;
51665;Laerm;37751;52.408;12.536;2024-03-06T06:09:19;60.94;49.48;70.13;;
51665;Laerm;37751;52.408;12.536;2024-03-06T06:12:13;67.89;48.13;90.90;;
51665;Laerm;37751;52.408;12.536;2024-03-06T06:15:10;60.75;49.19;69.85;;
51665;Laerm;37751;52.408;12.536;2024-03-06T06:17:42;61.19;50.15;68.61;;
51665;Laerm;37751;52.408;12.536;2024-03-06T06:20:34;60.18;50.86;68.72;;
51665;Laerm;37751;52.408;12.536;2024-03-06T06:23:47;61.98;51.95;69.27;;
51665;Laerm;37751;52.408;12.536;2024-03-06T06:26:22;58.98;48.27;70.94;;
51665;Laerm;37751;52.408;12.536;2024-03-06T06:29:06;60.11;48.00;69.33;;
51665;Laerm;37751;52.408;12.536;2024-03-06T06:31:49;60.17;50.64;67.23;;
51665;Laerm;37751;52.408;12.536;2024-03-06T06:34:20;61.86;43.79;76.00;;
51665;Laerm;37751;52.408;12.536;2024-03-06T06:37:04;61.24;49.04;72.57;;
51665;Laerm;37751;52.408;12.536;2024-03-06T06:40:08;59.92;45.85;66.71;;
51665;Laerm;37751;52.408;12.536;2024-03-06T06:42:45;61.10;50.91;70.41;;
51665;Laerm;37751;52.408;12.536;2024-03-06T06:45:49;60.07;45.99;67.28;;
51665;Laerm;37751;52.408;12.536;2024-03-06T06:49:04;59.30;47.55;68.31;;
51665;Laerm;37751;52.408;12.536;2024-03-06T06:51:37;60.62;47.70;68.58;;
51665;Laerm;37751;52.408;12.536;2024-03-06T06:54:37;61.05;45.94;76.37;;
51665;Laerm;37751;52.408;12.536;2024-03-06T06:57:38;61.22;45.65;70.57;;
51665;Laerm;37751;52.408;12.536;2024-03-06T07:00:30;59.67;45.91;71.83;;
51665;Laerm;37751;52.408;12.536;2024-03-06T07:03:02;62.89;51.66;72.35;;
51665;Laerm;37751;52.408;12.536;2024-03-06T07:05:40;61.08;51.34;70.11;;
51665;Laerm;37751;52.408;12.536;2024-03-06T07:08:51;60.21;48.41;68.27;;
51665;Laerm;37751;52.408;12.536;2024-03-06T07:11:47;59.92;49.69;69.21;;
51665;Laerm;37751;52.408;12.536;2024-03-06T07:14:59;60.07;42.35;69.62;;
51665;Laerm;37751;52.408;12.536;2024-03-06T07:17:46;58.58;44.91;74.02;;
51665;Laerm;37751;52.408;12.536;2024-03-06T07:20:23;60.49;45.47;76.07;;
51665;Laerm;37751;52.408;12.536;2024-03-06T07:23:08;59.73;47.33;69.61;;
51665;Laerm;37751;52.408;12.536;2024-03-06T07:26:07;60.06;45.95;71.76;;
51665;Laerm;37751;52.408;12.536;2024-03-06T07:28:59;61.05;48.90;73.68;;
51665;Laerm;37751;52.408;12.536;2024-03-06T07:31:51;61.50;48.52;71.20;;
51665;Laerm;37751;52.408;12.536;2024-03-06T07:34:42;63.46;49.70;79.34;;
51665;Laerm;37751;52.408;12.536;2024-03-06T07:37:34;63.26;52.38;73.75;;
51665;Laerm;37751;52.408;12.536;2024-03-06T07:40:19;67.36;54.25;81.06;;
51665;Laerm;37751;52.408;12.536;2024-03-06T07:42:50;63.83;55.82;70.43;;
51665;Laerm;37751;52.408;12.536;2024-03-06T07:45:24;62.90;51.14;69.38;;
51665;Laerm;37751;52.408;12.536;2024-03-06T07:47:59;66.97;50.32;80.59;;
51665;Laerm;37751;52.408;12.536;2024-03-06T07:50:50;60.48;45.63;73.15;;
51665;Laerm;37751;52.408;12.536;2024-03-06T07:53:27;63.54;46.08;77.69;;
51665;Laerm;37751;52.408;12.536;2024-03-06T07:56:10;60.38;48.78;68.87;;
51665;Laerm;37751;52.408;12.536;2024-03-06T07:58:45;59.40;44.17;68.46;;
51665;Laerm;37751;52.408;12.536;2024-03-06T08:01:16;60.43;45.77;70.54;;
51665;Laerm;37751;52.408;12.536;2024-03-06T08:03:47;61.05;48.56;72.31;;
51665;Laerm;37751;52.408;12.536;2024-03-06T08:06:59;63.37;48.27;79.50;;
51665;Laerm;37751;52.408;12.536;2024-03-06T08:09:30;60.92;49.78;71.20;;
51665;Laerm;37751;52.408;12.536;2024-03-06T08:12:24;62.51;50.57;74.09;;
51665;Laerm;37751;52.408;12.536;2024-03-06T08:14:56;60.21;45.49;71.91;;
51665;Laerm;37751;52.408;12.536;2024-03-06T08:17:28;59.26;46.05;66.42;;
51665;Laerm;37751;52.408;12.536;2024-03-06T08:20:02;66.42;47.01;89.38;;
51665;Laerm;37751;52.408;12.536;2024-03-06T08:22:56;60.48;46.00;71.87;;
51665;Laerm;37751;52.408;12.536;2024-03-06T08:25:48;61.16;46.90;73.86;;
51665;Laerm;37751;52.408;12.536;2024-03-06T08:28:28;59.95;46.82;71.42;;
51665;Laerm;37751;52.408;12.536;2024-03-06T08:31:03;60.98;50.87;71.37;;
51665;Laerm;37751;52.408;12.536;2024-03-06T08:33:54;66.89;45.14;88.52;;
51665;Laerm;37751;52.408;12.536;2024-03-06T08:36:40;60.12;45.53;70.88;;
51665;Laerm;37751;52.408;12.536;2024-03-06T08:39:11;61.08;50.10;72.66;;
51665;Laerm;37751;52.408;12.536;2024-03-06T08:42:05;60.27;49.55;72.13;;
51665;Laerm;37751;52.408;12.536;2024-03-06T08:45:08;59.11;46.40;67.06;;
51665;Laerm;37751;52.408;12.536;2024-03-06T08:48:00;60.72;43.36;79.41;;
51665;Laerm;37751;52.408;12.536;2024-03-06T08:51:02;61.06;47.77;72.02;;
51665;Laerm;37751;52.408;12.536;2024-03-06T08:54:19;60.37;40.47;72.34;;
51665;Laerm;37751;52.408;12.536;2024-03-06T08:57:30;59.91;46.12;68.31;;
51665;Laerm;37751;52.408;12.536;2024-03-06T09:00:23;62.82;46.56;75.08;;
51665;Laerm;37751;52.408;12.536;2024-03-06T09:02:54;63.65;50.94;79.05;;
51665;Laerm;37751;52.408;12.536;2024-03-06T09:05:36;59.44;45.58;70.45;;
51665;Laerm;37751;52.408;12.536;2024-03-06T09:08:26;62.89;43.19;82.32;;
51665;Laerm;37751;52.408;12.536;2024-03-06T09:11:21;60.75;48.11;69.94;;
51665;Laerm;37751;52.408;12.536;2024-03-06T09:14:03;59.78;45.18;73.55;;
51665;Laerm;37751;52.408;12.536;2024-03-06T09:16:49;59.07;44.70;70.71;;
51665;Laerm;37751;52.408;12.536;2024-03-06T09:19:24;61.74;46.55;76.62;;
51665;Laerm;37751;52.408;12.536;2024-03-06T09:22:21;61.42;47.98;68.29;;
51665;Laerm;37751;52.408;12.536;2024-03-06T09:25:13;58.55;45.51;66.90;;
51665;Laerm;37751;52.408;12.536;2024-03-06T09:27:44;60.28;46.48;70.46;;
51665;Laerm;37751;52.408;12.536;2024-03-06T09:30:36;60.39;46.45;70.89;;
51665;Laerm;37751;52.408;12.536;2024-03-06T09:33:13;60.29;47.45;68.78;;
51665;Laerm;37751;52.408;12.536;2024-03-06T09:36:05;60.39;48.66;68.85;;
51665;Laerm;37751;52.408;12.536;2024-03-06T09:38:57;59.97;45.86;69.86;;
51665;Laerm;37751;52.408;12.536;2024-03-06T09:41:31;58.77;42.76;67.04;;
51665;Laerm;37751;52.408;12.536;2024-03-06T09:44:24;61.03;47.73;73.36;;
51665;Laerm;37751;52.408;12.536;2024-03-06T09:47:19;59.15;43.72;72.20;;
51665;Laerm;37751;52.408;12.536;2024-03-06T09:49:56;59.96;44.99;71.77;;
51665;Laerm;37751;52.408;12.536;2024-03-06T09:52:36;59.79;44.46;70.82;;
51665;Laerm;37751;52.408;12.536;2024-03-06T09:55:08;62.30;48.41;80.65;;
51665;Laerm;37751;52.408;12.536;2024-03-06T09:57:40;58.88;46.27;69.75;;
51665;Laerm;37751;52.408;12.536;2024-03-06T10:00:22;60.27;45.75;69.01;;
51665;Laerm;37751;52.408;12.536;2024-03-06T10:03:17;62.44;47.04;80.55;;
51665;Laerm;37751;52.408;12.536;2024-03-06T10:05:51;58.73;45.00;68.11;;
51665;Laerm;37751;52.408;12.536;2024-03-06T10:08:23;58.41;45.24;69.27;;
51665;Laerm;37751;52.408;12.536;2024-03-06T10:10:56;59.12;48.38;66.19;;
51665;Laerm;37751;52.408;12.536;2024-03-06T10:13:27;59.42;44.91;70.12;;
51665;Laerm;37751;52.408;12.536;2024-03-06T10:16:04;61.33;45.71;70.33;;
51665;Laerm;37751;52.408;12.536;2024-03-06T10:19:15;60.55;48.95;70.53;;
51665;Laerm;37751;52.408;12.536;2024-03-06T10:21:51;60.18;48.91;68.21;;
51665;Laerm;37751;52.408;12.536;2024-03-06T10:24:24;58.95;44.42;67.13;;
51665;Laerm;37751;52.408;12.536;2024-03-06T10:27:35;60.52;43.76;74.31;;
51665;Laerm;37751;52.408;12.536;2024-03-06T10:30:11;63.17;46.82;84.80;;
51665;Laerm;37751;52.408;12.536;2024-03-06T10:32:54;61.10;46.08;70.00;;
51665;Laerm;37751;52.408;12.536;2024-03-06T10:35:29;60.73;44.37;69.77;;
51665;Laerm;37751;52.408;12.536;2024-03-06T10:38:14;59.93;45.49;70.49;;
51665;Laerm;37751;52.408;12.536;2024-03-06T10:40:46;59.29;43.45;69.03;;
51665;Laerm;37751;52.408;12.536;2024-03-06T10:43:18;61.73;47.29;78.30;;
51665;Laerm;37751;52.408;12.536;2024-03-06T10:46:00;58.80;41.65;70.02;;
51665;Laerm;37751;52.408;12.536;2024-03-06T10:48:56;62.09;49.13;83.42;;
51665;Laerm;37751;52.408;12.536;2024-03-06T10:52:01;58.92;46.29;66.25;;
51665;Laerm;37751;52.408;12.536;2024-03-06T10:54:38;61.06;47.08;70.20;;
51665;Laerm;37751;52.408;12.536;2024-03-06T10:57:30;59.66;43.66;71.09;;
51665;Laerm;37751;52.408;12.536;2024-03-06T11:00:16;60.59;47.94;69.61;;
51665;Laerm;37751;52.408;12.536;2024-03-06T11:02:47;60.84;48.27;67.76;;
51665;Laerm;37751;52.408;12.536;2024-03-06T11:05:30;59.57;50.21;67.15;;
51665;Laerm;37751;52.408;12.536;2024-03-06T11:08:25;61.29;47.95;72.59;;
51665;Laerm;37751;52.408;12.536;2024-03-06T11:11:24;61.35;47.79;81.57;;
51665;Laerm;37751;52.408;12.536;2024-03-06T11:14:01;58.44;43.65;67.20;;
51665;Laerm;37751;52.408;12.536;2024-03-06T11:17:00;59.45;43.95;71.12;;
51665;Laerm;37751;52.408;12.536;2024-03-06T11:20:18;60.11;43.91;69.74;;
51665;Laerm;37751;52.408;12.536;2024-03-06T11:23:04;59.76;46.35;72.79;;
51665;Laerm;37751;52.408;12.536;2024-03-06T11:26:03;60.20;46.78;72.20;;
51665;Laerm;37751;52.408;12.536;2024-03-06T11:28:40;58.91;44.06;67.65;;
51665;Laerm;37751;52.408;12.536;2024-03-06T11:31:31;60.42;44.30;71.35;;
51665;Laerm;37751;52.408;12.536;2024-03-06T11:34:04;59.55;44.63;69.91;;
51665;Laerm;37751;52.408;12.536;2024-03-06T11:36:35;58.79;48.09;66.66;;
51665;Laerm;37751;52.408;12.536;2024-03-06T11:39:08;61.95;46.50;71.22;;
51665;Laerm;37751;52.408;12.536;2024-03-06T11:41:48;60.16;47.45;70.49;;
51665;Laerm;37751;52.408;12.536;2024-03-06T11:44:32;58.60;40.72;67.33;;
51665;Laerm;37751;52.408;12.536;2024-03-06T11:47:17;58.89;43.02;69.79;;
51665;Laerm;37751;52.408;12.536;2024-03-06T11:50:00;61.08;49.12;75.61;;
51665;Laerm;37751;52.408;12.536;2024-03-06T11:52:43;61.23;51.69;74.82;;
51665;Laerm;37751;52.408;12.536;2024-03-06T11:55:14;61.07;51.21;71.66;;
51665;Laerm;37751;52.408;12.536;2024-03-06T11:57:47;59.13;48.28;67.93;;
51665;Laerm;37751;52.408;12.536;2024-03-06T12:00:21;59.78;44.77;71.05;;
51665;Laerm;37751;52.408;12.536;2024-03-06T12:02:53;59.44;47.00;68.78;;
51665;Laerm;37751;52.408;12.536;2024-03-06T12:05:24;60.38;48.02;79.11;;
51665;Laerm;37751;52.408;12.536;2024-03-06T12:07:56;60.52;48.55;68.19;;
51665;Laerm;37751;52.408;12.536;2024-03-06T12:10:30;59.21;46.20;68.52;;
51665;Laerm;37751;52.408;12.536;2024-03-06T12:13:05;62.19;50.84;81.61;;
51665;Laerm;37751;52.408;12.536;2024-03-06T12:15:46;62.17;47.40;80.70;;
51665;Laerm;37751;52.408;12.536;2024-03-06T12:18:18;59.35;44.68;76.13;;
51665;Laerm;37751;52.408;12.536;2024-03-06T12:20:56;59.90;44.02;71.34;;
51665;Laerm;37751;52.408;12.536;2024-03-06T12:23:50;60.46;44.84;70.50;;
51665;Laerm;37751;52.408;12.536;2024-03-06T12:26:23;58.87;46.12;67.71;;
51665;Laerm;37751;52.408;12.536;2024-03-06T12:29:04;60.71;48.49;76.91;;
51665;Laerm;37751;52.408;12.536;2024-03-06T12:31:42;61.73;49.35;70.14;;
51665;Laerm;37751;52.408;12.536;2024-03-06T12:34:14;60.75;47.36;74.71;;
51665;Laerm;37751;52.408;12.536;2024-03-06T12:36:46;58.01;46.13;68.08;;
51665;Laerm;37751;52.408;12.536;2024-03-06T12:39:18;58.86;46.06;71.36;;
51665;Laerm;37751;52.408;12.536;2024-03-06T12:42:03;58.36;45.54;68.84;;
51665;Laerm;37751;52.408;12.536;2024-03-06T12:44:34;62.25;47.97;71.18;;
51665;Laerm;37751;52.408;12.536;2024-03-06T12:47:30;60.59;48.64;70.83;;
51665;Laerm;37751;52.408;12.536;2024-03-06T12:50:05;60.67;46.82;80.27;;
51665;Laerm;37751;52.408;12.536;2024-03-06T12:52:36;59.46;47.26;67.46;;
51665;Laerm;37751;52.408;12.536;2024-03-06T12:55:08;60.68;46.12;68.38;;
51665;Laerm;37751;52.408;12.536;2024-03-06T12:57:40;60.02;47.66;69.03;;
51665;Laerm;37751;52.408;12.536;2024-03-06T13:00:13;59.82;45.83;68.40;;
51665;Laerm;37751;52.408;12.536;2024-03-06T13:02:50;60.82;47.08;69.89;;
51665;Laerm;37751;52.408;12.536;2024-03-06T13:05:21;62.76;49.51;75.00;;
51665;Laerm;37751;52.408;12.536;2024-03-06T13:07:53;60.09;45.80;71.02;;
51665;Laerm;37751;52.408;12.536;2024-03-06T13:10:24;61.01;46.59;69.67;;
51665;Laerm;37751;52.408;12.536;2024-03-06T13:12:57;60.88;51.44;69.81;;
51665;Laerm;37751;52.408;12.536;2024-03-06T13:15:33;62.71;48.17;74.24;;
51665;Laerm;37751;52.408;12.536;2024-03-06T13:18:07;60.77;51.16;68.28;;
51665;Laerm;37751;52.408;12.536;2024-03-06T13:20:43;60.61;49.98;71.65;;
51665;Laerm;37751;52.408;12.536;2024-03-06T13:23:17;60.59;46.54;69.69;;
51665;Laerm;37751;52.408;12.536;2024-03-06T13:25:49;61.49;50.43;74.47;;
51665;Laerm;37751;52.408;12.536;2024-03-06T13:28:20;60.50;46.30;67.59;;
51665;Laerm;37751;52.408;12.536;2024-03-06T13:30:52;60.58;49.31;70.37;;
51665;Laerm;37751;52.408;12.536;2024-03-06T13:33:26;60.30;50.69;67.16;;
51665;Laerm;37751;52.408;12.536;2024-03-06T13:35:57;60.73;46.69;74.12;;
51665;Laerm;37751;52.408;12.536;2024-03-06T13:39:03;61.50;48.13;69.15;;
51665;Laerm;37751;52.408;12.536;2024-03-06T13:41:35;60.71;45.39;68.84;;
51665;Laerm;37751;52.408;12.536;2024-03-06T13:44:10;61.66;49.97;74.91;;
51665;Laerm;37751;52.408;12.536;2024-03-06T13:46:43;61.92;47.89;81.31;;
51665;Laerm;37751;52.408;12.536;2024-03-06T13:49:37;61.51;48.50;73.97;;
51665;Laerm;37751;52.408;12.536;2024-03-06T13:52:10;62.12;48.68;74.28;;
51665;Laerm;37751;52.408;12.536;2024-03-06T13:54:43;60.38;51.44;70.49;;
51665;Laerm;37751;52.408;12.536;2024-03-06T13:57:17;59.51;47.64;65.97;;
51665;Laerm;37751;52.408;12.536;2024-03-06T13:59:51;60.51;47.43;71.84;;
51665;Laerm;37751;52.408;12.536;2024-03-06T14:02:23;58.27;46.75;68.93;;
51665;Laerm;37751;52.408;12.536;2024-03-06T14:05:20;60.50;45.56;68.80;;
51665;Laerm;37751;52.408;12.536;2024-03-06T14:07:56;61.66;52.88;75.23;;
51665;Laerm;37751;52.408;12.536;2024-03-06T14:10:31;59.78;51.40;67.16;;
51665;Laerm;37751;52.408;12.536;2024-03-06T14:13:43;59.98;46.98;67.98;;
51665;Laerm;37751;52.408;12.536;2024-03-06T14:16:15;59.71;45.94;67.77;;
51665;Laerm;37751;52.408;12.536;2024-03-06T14:18:56;60.84;49.99;69.01;;
51665;Laerm;37751;52.408;12.536;2024-03-06T14:21:31;61.41;48.81;70.51;;
51665;Laerm;37751;52.408;12.536;2024-03-06T14:24:06;60.52;48.48;67.50;;
51665;Laerm;37751;52.408;12.536;2024-03-06T14:26:41;60.71;52.81;68.62;;
51665;Laerm;37751;52.408;12.536;2024-03-06T14:29:15;62.09;46.60;70.62;;
51665;Laerm;37751;52.408;12.536;2024-03-06T14:31:49;60.98;43.95;69.31;;
51665;Laerm;37751;52.408;12.536;2024-03-06T14:34:33;61.66;48.37;69.90;;
51665;Laerm;37751;52.408;12.536;2024-03-06T14:37:11;61.68;51.39;67.63;;
51665;Laerm;37751;52.408;12.536;2024-03-06T14:40:08;61.15;47.57;67.47;;
51665;Laerm;37751;52.408;12.536;2024-03-06T14:43:12;60.37;47.18;68.71;;
51665;Laerm;37751;52.408;12.536;2024-03-06T14:46:14;60.96;47.21;73.48;;
51665;Laerm;37751;52.408;12.536;2024-03-06T14:48:54;61.31;54.56;69.37;;
51665;Laerm;37751;52.408;12.536;2024-03-06T14:51:56;61.68;46.51;75.85;;
51665;Laerm;37751;52.408;12.536;2024-03-06T14:54:39;61.24;46.24;70.12;;
51665;Laerm;37751;52.408;12.536;2024-03-06T14:57:44;61.18;49.84;80.93;;
51665;Laerm;37751;52.408;12.536;2024-03-06T15:00:19;59.44;43.74;69.08;;
51665;Laerm;37751;52.408;12.536;2024-03-06T15:02:55;61.93;48.97;71.91;;
51665;Laerm;37751;52.408;12.536;2024-03-06T15:05:32;61.46;51.91;72.25;;
51665;Laerm;37751;52.408;12.536;2024-03-06T15:08:16;60.42;47.57;73.57;;
51665;Laerm;37751;52.408;12.536;2024-03-06T15:11:11;61.16;47.13;74.14;;
51665;Laerm;37751;52.408;12.536;2024-03-06T15:14:03;65.42;46.60;84.41;;
51665;Laerm;37751;52.408;12.536;2024-03-06T15:16:46;59.90;47.98;72.81;;
51665;Laerm;37751;52.408;12.536;2024-03-06T15:19:26;60.36;47.44;67.38;;